Terminal Aerodrome Forecast
Issued by NWS Corpus Christi, TX

Home | Current Version | Previous Version | Text Only | Print | Product List | Glossary On
Versions: 1 2 3 4 5 6 7 8 9 10 11 12 13 14 15 16 17 18 19 20
000
FTUS44 KCRP 032329
TAFVCT
TAF
KVCT 032329Z 0400/0424 16015KT P6SM SCT100
     FM040700 17004KT P6SM BKN020
      TEMPO 0410/0412 5SM BR
     FM041500 17008KT P6SM VCSH SCT030
      TEMPO 0415/0418 BKN030
     FM042100 16014G18KT P6SM SCT035 BKN250=

USA.gov is the U.S. government's official web portal to all federal, state and local government web resources and services.